Time;durP1;ratioP1;P1;durP2;ratioP2;P2;SDS_P1;SDS_P2;PMS_P1;PMS_P2;Temp;Humidity;BMP_temperature;BMP_pressure;BME280_temperature;BME280_humidity;BME280_pressure;Samples;Min_cycle;Max_cycle;Signal;HPM_P1;HPM_P2
2023/04/23 00:00:29;;;;;;;4.90;2.07;;;;;;;-145.69;100.00;52412.69;5052378;28;20203;-81
2023/04/23 00:02:57;;;;;;;4.23;2.30;;;;;;;-145.69;100.00;52402.78;5052612;28;20734;-82
2023/04/23 00:05:27;;;;;;;8.23;2.00;;;;;;;-145.69;100.00;52384.97;5052523;28;20200;-80
2023/04/23 00:07:54;;;;;;;4.67;2.13;;;;;;;-145.69;100.00;52418.63;5052641;28;20632;-80
2023/04/23 00:10:22;;;;;;;4.67;2.13;;;;;;;-145.69;100.00;52404.78;5057646;28;20210;-79
2023/04/23 00:12:49;;;;;;;10.00;2.00;;;;;;;-145.69;100.00;52418.63;5075703;28;20201;-80
2023/04/23 00:15:16;;;;;;;7.93;2.27;;;;;;;-145.69;100.00;52384.97;5076847;28;20206;-81
2023/04/23 00:17:43;;;;;;;5.60;1.97;;;;;;;-145.69;100.00;52428.53;5075776;28;20207;-82
2023/04/23 00:20:11;;;;;;;4.27;1.90;;;;;;;-145.69;100.00;52410.72;5075907;28;20202;-81
2023/04/23 00:22:38;;;;;;;3.77;1.70;;;;;;;-145.69;100.00;52440.44;5076219;28;20203;-80
2023/04/23 00:25:05;;;;;;;5.87;2.40;;;;;;;-145.69;100.00;52408.75;5075861;28;20195;-80
2023/04/23 00:27:31;;;;;;;6.10;2.30;;;;;;;-145.69;100.00;52428.53;5075657;28;20211;-81
2023/04/23 00:29:58;;;;;;;6.17;1.90;;;;;;;-145.69;100.00;52430.53;5075757;28;20195;-81
2023/04/23 00:32:24;;;;;;;3.57;2.23;;;;;;;-145.69;100.00;52428.53;5076089;28;20203;-80
2023/04/23 00:34:51;;;;;;;6.30;2.13;;;;;;;-145.69;100.00;52412.69;5076017;28;20199;-80
2023/04/23 00:37:19;;;;;;;4.57;2.27;;;;;;;-145.69;100.00;52420.63;5075841;28;20198;-82
2023/04/23 00:39:45;;;;;;;6.67;2.43;;;;;;;-145.69;100.00;52422.59;5075859;28;20217;-81
2023/04/23 00:42:12;;;;;;;4.00;2.07;;;;;;;-145.69;100.00;52400.81;5075552;28;20589;-82
2023/04/23 00:44:41;;;;;;;6.97;2.37;;;;;;;-145.69;100.00;52369.13;5074691;28;20219;-81
2023/04/23 00:47:08;;;;;;;6.53;2.30;;;;;;;-145.69;100.00;52388.94;5072493;28;20254;-82
2023/04/23 00:49:35;;;;;;;6.73;2.03;;;;;;;-145.69;100.00;52418.63;5075043;28;20202;-82
2023/04/23 00:52:02;;;;;;;5.00;2.47;;;;;;;-145.69;100.00;52392.91;5075491;28;20205;-83
2023/04/23 00:54:30;;;;;;;6.23;2.23;;;;;;;-145.69;100.00;52422.59;5075390;28;20195;-82
2023/04/23 00:56:58;;;;;;;8.33;2.20;;;;;;;-145.69;100.00;52420.63;5075151;28;20738;-82
2023/04/23 00:59:25;;;;;;;8.30;2.53;;;;;;;-145.69;100.00;52434.47;5075169;28;20199;-82
2023/04/23 01:01:52;;;;;;;8.63;2.33;;;;;;;-145.69;100.00;52422.59;5075220;28;20191;-82
2023/04/23 01:04:20;;;;;;;5.50;2.20;;;;;;;-145.69;100.00;52424.59;5075244;28;20199;-82
2023/04/23 01:06:47;;;;;;;6.63;2.87;;;;;;;-145.69;100.00;52440.44;5073991;28;20286;-82
2023/04/23 01:09:16;;;;;;;5.10;2.37;;;;;;;-145.69;100.00;52452.31;5074777;28;20712;-81
2023/04/23 01:11:44;;;;;;;7.43;2.47;;;;;;;-145.69;100.00;52426.56;5074386;28;20277;-81
2023/04/23 01:14:11;;;;;;;10.30;2.30;;;;;;;-145.69;100.00;52434.47;5074792;28;20557;-81
2023/04/23 01:16:38;;;;;;;5.07;2.53;;;;;;;-145.69;100.00;52412.69;5074529;28;20205;-81
2023/04/23 01:19:05;;;;;;;4.57;2.57;;;;;;;-145.69;100.00;52444.38;5074697;28;20527;-81
2023/04/23 01:21:33;;;;;;;5.17;2.63;;;;;;;-145.69;100.00;52424.59;5074804;28;20198;-81
2023/04/23 01:24:01;;;;;;;8.43;3.23;;;;;;;-145.69;100.00;52420.63;5074858;28;20207;-81
2023/04/23 01:26:28;;;;;;;7.30;2.63;;;;;;;-145.69;100.00;52440.44;5074930;28;20538;-81
2023/04/23 01:28:55;;;;;;;5.77;2.60;;;;;;;-145.69;100.00;52420.63;5074487;28;20230;-80
2023/04/23 01:31:22;;;;;;;5.87;2.63;;;;;;;-145.69;100.00;52428.53;5074550;28;20553;-81
2023/04/23 01:33:50;;;;;;;7.73;3.03;;;;;;;-145.69;100.00;52450.31;5074827;28;20680;-82
2023/04/23 01:36:18;;;;;;;10.23;3.73;;;;;;;-145.69;100.00;52424.59;5074770;28;20195;-81
2023/04/23 01:38:44;;;;;;;5.30;3.03;;;;;;;-145.69;100.00;52432.50;5074202;28;20198;-80
2023/04/23 01:41:12;;;;;;;8.87;2.90;;;;;;;-145.69;100.00;52420.63;5074858;28;20226;-82
2023/04/23 01:43:41;;;;;;;5.73;3.00;;;;;;;-145.69;100.00;52406.75;5074591;28;20205;-81
2023/04/23 01:46:08;;;;;;;7.30;2.63;;;;;;;-145.69;100.00;52432.50;5074504;28;20234;-81
2023/04/23 01:48:35;;;;;;;4.40;2.50;;;;;;;-145.69;100.00;52440.44;5073874;28;20245;-81
2023/04/23 01:51:01;;;;;;;6.67;3.27;;;;;;;-145.69;100.00;52406.75;5074254;28;20218;-81
2023/04/23 01:53:28;;;;;;;7.00;3.37;;;;;;;-145.69;100.00;52408.75;5074499;28;20203;-82
2023/04/23 01:55:55;;;;;;;6.87;3.03;;;;;;;-145.69;100.00;52442.41;5074256;28;20212;-82
2023/04/23 01:58:24;;;;;;;3.97;2.50;;;;;;;-145.69;100.00;52456.28;5074334;28;20225;-82
2023/04/23 02:00:51;;;;;;;5.03;2.50;;;;;;;-145.69;100.00;52434.47;5074288;28;20669;-81
2023/04/23 02:03:17;;;;;;;5.93;3.17;;;;;;;-145.69;100.00;52456.28;5074117;28;20646;-83
2023/04/23 02:05:44;;;;;;;4.50;2.50;;;;;;;-145.69;100.00;52456.28;5073883;28;20203;-82
2023/04/23 02:08:11;;;;;;;5.83;2.60;;;;;;;-145.69;100.00;52456.28;5073968;28;20218;-81
2023/04/23 02:10:38;;;;;;;5.83;2.63;;;;;;;-145.69;100.00;52452.31;5073874;28;20187;-81
2023/04/23 02:13:04;;;;;;;6.57;2.43;;;;;;;-145.69;100.00;52470.13;5074195;28;20546;-81
2023/04/23 02:15:32;;;;;;;8.37;2.57;;;;;;;-145.69;100.00;52452.31;5073960;28;20285;-81
2023/04/23 02:17:59;;;;;;;5.03;2.00;;;;;;;-145.69;100.00;52438.44;5074139;28;20672;-82
2023/04/23 02:20:26;;;;;;;3.67;2.20;;;;;;;-145.69;100.00;52432.50;5073505;28;20199;-81
2023/04/23 02:22:52;;;;;;;5.83;1.77;;;;;;;-145.69;100.00;52450.31;5073280;28;20237;-82
2023/04/23 02:25:20;;;;;;;5.37;1.80;;;;;;;-145.69;100.00;52452.31;5073832;28;20290;-82
2023/04/23 02:27:47;;;;;;;3.20;1.70;;;;;;;-145.69;100.00;52438.44;5073698;28;20222;-82
2023/04/23 02:30:14;;;;;;;2.17;1.50;;;;;;;-145.69;100.00;52462.22;5073828;28;20199;-82
2023/04/23 02:32:42;;;;;;;2.83;1.63;;;;;;;-145.69;100.00;52487.97;5072938;28;20210;-82
2023/04/23 02:35:10;;;;;;;2.40;1.70;;;;;;;-145.69;100.00;52474.09;5073844;28;20202;-83
2023/04/23 02:37:37;;;;;;;2.43;1.50;;;;;;;-145.69;100.00;52424.59;5073646;28;20230;-83
2023/04/23 02:40:04;;;;;;;2.00;1.40;;;;;;;-145.69;100.00;52474.09;5073318;28;20201;-83
2023/04/23 02:42:31;;;;;;;1.67;1.27;;;;;;;-145.69;100.00;52416.66;5073570;28;20291;-83
2023/04/23 02:44:57;;;;;;;2.37;1.50;;;;;;;-145.69;100.00;52472.13;5072784;28;20231;-82
2023/04/23 02:47:24;;;;;;;2.93;1.70;;;;;;;-145.69;100.00;52456.28;5068050;28;20199;-82
2023/04/23 02:49:52;;;;;;;5.97;1.50;;;;;;;-145.69;100.00;52452.31;5073284;28;20202;-81
2023/04/23 02:52:18;;;;;;;2.93;1.30;;;;;;;-145.69;100.00;52468.16;5072813;28;20654;-81
2023/04/23 02:54:45;;;;;;;1.97;1.30;;;;;;;-145.69;100.00;52420.63;5073373;28;20203;-81
2023/04/23 02:57:13;;;;;;;3.17;1.20;;;;;;;-145.69;100.00;52464.19;5072497;28;20202;-81
2023/04/23 02:59:39;;;;;;;2.03;1.30;;;;;;;-145.69;100.00;52468.16;5072698;28;20202;-82
2023/04/23 03:02:06;;;;;;;4.40;1.50;;;;;;;-145.69;100.00;52472.13;5073084;28;20557;-80
2023/04/23 03:04:32;;;;;;;4.90;1.30;;;;;;;-145.69;100.00;52426.56;5073293;28;20199;-81
2023/04/23 03:07:00;;;;;;;1.40;1.30;;;;;;;-145.69;100.00;52456.28;5073173;28;20285;-81
2023/04/23 03:09:27;;;;;;;1.60;1.13;;;;;;;-145.69;100.00;52484.00;5072702;28;20252;-83
2023/04/23 03:11:54;;;;;;;1.20;1.10;;;;;;;-145.69;100.00;52476.06;5073172;28;20198;-81
2023/04/23 03:14:21;;;;;;;2.37;1.10;;;;;;;-145.69;100.00;52472.13;5072579;28;20728;-82
2023/04/23 03:16:47;;;;;;;2.93;1.27;;;;;;;-145.69;100.00;52452.31;5073268;28;20660;-80
2023/04/23 03:19:14;;;;;;;1.10;1.00;;;;;;;-145.69;100.00;52480.03;5072796;28;20198;-81
2023/04/23 03:21:41;;;;;;;2.13;1.20;;;;;;;-145.69;100.00;52472.13;5072872;28;20209;-82
2023/04/23 03:24:10;;;;;;;1.37;1.10;;;;;;;-145.69;100.00;52501.81;5072896;28;20206;-82
2023/04/23 03:26:37;;;;;;;1.00;0.90;;;;;;;-145.69;100.00;52484.00;5072800;28;20198;-82
2023/04/23 03:29:05;;;;;;;3.23;1.13;;;;;;;-145.69;100.00;52489.94;5072690;28;20225;-81
2023/04/23 03:31:31;;;;;;;1.90;1.10;;;;;;;-145.69;100.00;52493.91;5072948;28;20198;-81
2023/04/23 03:33:58;;;;;;;1.40;1.30;;;;;;;-145.69;100.00;52476.06;5072681;28;20293;-81
2023/04/23 03:36:24;;;;;;;2.30;1.33;;;;;;;-145.69;100.00;52464.19;5072608;28;20206;-80
2023/04/23 03:38:51;;;;;;;2.80;1.40;;;;;;;-145.69;100.00;52491.91;5072486;28;20209;-80
2023/04/23 03:41:19;;;;;;;3.13;1.43;;;;;;;-145.69;100.00;52501.81;5072363;28;20201;-80
2023/04/23 03:43:45;;;;;;;1.60;1.23;;;;;;;-145.69;100.00;52505.78;5073221;28;20248;-81
2023/04/23 03:46:12;;;;;;;2.37;0.87;;;;;;;-145.69;100.00;52493.91;5076324;28;20222;-81
2023/04/23 03:48:38;;;;;;;2.23;1.00;;;;;;;-145.69;100.00;52464.19;5076701;28;20215;-82
2023/04/23 03:51:05;;;;;;;2.10;1.00;;;;;;;-145.69;100.00;52487.97;5076985;28;20206;-82
2023/04/23 03:53:31;;;;;;;2.83;1.20;;;;;;;-145.69;100.00;52480.03;5076299;28;20202;-82
2023/04/23 03:55:58;;;;;;;2.67;1.23;;;;;;;-145.69;100.00;52468.16;5076128;28;20673;-81
2023/04/23 03:58:25;;;;;;;1.50;0.90;;;;;;;-145.69;100.00;52456.28;5076009;28;20202;-80
2023/04/23 04:00:53;;;;;;;3.13;0.90;;;;;;;-145.69;100.00;52493.91;5076494;28;20232;-80
2023/04/23 04:03:20;;;;;;;1.20;0.90;;;;;;;-145.69;100.00;52472.13;5075961;28;20195;-82
2023/04/23 04:05:46;;;;;;;1.83;0.90;;;;;;;-145.69;100.00;52482.00;5076625;28;20642;-80
2023/04/23 04:08:13;;;;;;;1.13;0.93;;;;;;;-145.69;100.00;52499.84;5076474;28;20223;-81
2023/04/23 04:10:39;;;;;;;2.13;1.00;;;;;;;-145.69;100.00;52497.84;5076274;28;20199;-81
2023/04/23 04:13:06;;;;;;;1.10;0.90;;;;;;;-145.69;100.00;52517.66;5076021;28;20256;-80
2023/04/23 04:15:34;;;;;;;1.27;1.17;;;;;;;-145.69;100.00;52487.97;5076444;28;20205;-80
2023/04/23 04:18:00;;;;;;;1.60;1.17;;;;;;;-145.69;100.00;52497.84;5076307;28;20226;-80
2023/04/23 04:20:28;;;;;;;2.00;1.10;;;;;;;-145.69;100.00;52480.03;5075736;28;20194;-81
2023/04/23 04:22:55;;;;;;;3.27;1.00;;;;;;;-145.69;100.00;52497.84;5075764;28;20203;-80
2023/04/23 04:25:22;;;;;;;1.67;1.00;;;;;;;-145.69;100.00;52480.03;5076363;28;20294;-81
2023/04/23 04:27:51;;;;;;;1.83;1.17;;;;;;;-145.69;100.00;52478.06;5076225;28;20286;-81
2023/04/23 04:30:17;;;;;;;1.90;0.90;;;;;;;-145.69;100.00;52484.00;5075665;28;20202;-80
2023/04/23 04:32:46;;;;;;;1.60;1.00;;;;;;;-145.69;100.00;52501.81;5075608;28;20203;-80
2023/04/23 04:35:13;;;;;;;1.60;1.07;;;;;;;-145.69;100.00;52484.00;5076056;28;20202;-81
2023/04/23 04:37:40;;;;;;;1.33;1.10;;;;;;;-145.69;100.00;52484.00;5075718;28;20298;-80
2023/04/23 04:40:10;;;;;;;3.53;1.33;;;;;;;-145.69;100.00;52501.81;5076204;28;20207;-81
2023/04/23 04:42:38;;;;;;;2.73;1.20;;;;;;;-145.69;100.00;52462.22;5076141;28;20202;-81
2023/04/23 04:45:05;;;;;;;1.43;1.33;;;;;;;-145.69;100.00;52509.75;5073769;28;20227;-81
2023/04/23 04:47:32;;;;;;;1.87;1.30;;;;;;;-145.69;100.00;52480.03;5073714;28;20296;-81
2023/04/23 04:50:00;;;;;;;1.43;1.10;;;;;;;-145.69;100.00;52474.09;5075034;28;20231;-80
2023/04/23 04:52:27;;;;;;;2.27;1.23;;;;;;;-145.69;100.00;52480.03;5074859;28;20203;-81
2023/04/23 04:54:54;;;;;;;3.20;1.17;;;;;;;-145.69;100.00;52487.97;5075043;28;20205;-80
2023/04/23 04:57:21;;;;;;;1.60;0.90;;;;;;;-145.69;100.00;52485.97;5075087;28;20191;-80
2023/04/23 04:59:48;;;;;;;1.20;1.10;;;;;;;-145.69;100.00;52515.69;5075621;28;20206;-81
2023/04/23 05:02:15;;;;;;;2.07;1.10;;;;;;;-145.69;100.00;52466.16;5075425;28;20202;-80
2023/04/23 05:04:41;;;;;;;1.00;0.90;;;;;;;-145.69;100.00;52484.00;5074778;28;20199;-80
2023/04/23 05:07:09;;;;;;;3.17;1.13;;;;;;;-145.69;100.00;52495.88;5075479;28;20203;-80
2023/04/23 05:09:36;;;;;;;1.33;0.93;;;;;;;-145.69;100.00;52503.81;5074841;28;20766;-80
2023/04/23 05:12:06;;;;;;;2.03;1.20;;;;;;;-145.69;100.00;52493.91;5075488;28;20221;-80
2023/04/23 05:14:32;;;;;;;1.87;1.47;;;;;;;-145.69;100.00;52495.88;5074250;28;20205;-80
2023/04/23 05:16:59;;;;;;;3.30;1.07;;;;;;;-145.69;100.00;52484.00;5075006;28;20203;-79
2023/04/23 05:19:25;;;;;;;1.70;1.10;;;;;;;-145.69;100.00;52521.63;5074972;28;20736;-80
2023/04/23 05:21:52;;;;;;;1.37;1.00;;;;;;;-145.69;100.00;52499.84;5074845;28;20198;-79
2023/04/23 05:24:20;;;;;;;1.03;0.93;;;;;;;-145.69;100.00;52464.19;5075032;28;20202;-79
2023/04/23 05:26:46;;;;;;;1.47;0.90;;;;;;;-145.69;100.00;52489.94;5074576;28;20210;-80
2023/04/23 05:29:18;;;;;;;1.57;1.20;;;;;;;-145.69;100.00;52478.06;5074731;28;20716;-80
2023/04/23 05:31:44;;;;;;;0.80;0.80;;;;;;;-145.69;100.00;52472.13;5074741;28;20209;-81
2023/04/23 05:34:11;;;;;;;3.50;0.93;;;;;;;-145.69;100.00;52495.88;5074843;28;20205;-81
2023/04/23 05:36:38;;;;;;;3.60;1.07;;;;;;;-145.69;100.00;52458.25;5074752;28;20191;-81
2023/04/23 05:39:05;;;;;;;1.00;0.90;;;;;;;-145.69;100.00;52418.63;5074874;28;20210;-80
2023/04/23 05:41:33;;;;;;;1.50;0.87;;;;;;;-145.69;100.00;52487.97;5074519;28;20206;-81
2023/04/23 05:43:59;;;;;;;1.00;0.90;;;;;;;-145.69;100.00;52511.72;5074202;28;20203;-80
2023/04/23 05:46:26;;;;;;;3.53;0.90;;;;;;;-145.69;100.00;52505.78;5074319;28;20235;-80
2023/04/23 05:48:52;;;;;;;1.00;0.70;;;;;;;-145.69;100.00;52464.19;5074523;28;20237;-79
2023/04/23 05:51:19;;;;;;;1.20;0.80;;;;;;;-145.69;100.00;52484.00;5074071;28;20199;-80
2023/04/23 05:53:46;;;;;;;1.10;0.67;;;;;;;-145.69;100.00;52480.03;5073920;28;20246;-81
2023/04/23 05:56:12;;;;;;;0.93;0.70;;;;;;;-145.69;100.00;52426.56;5074514;28;20205;-81
2023/04/23 05:58:40;;;;;;;3.90;0.80;;;;;;;-145.69;100.00;52480.03;5074049;28;20198;-82
2023/04/23 06:01:07;;;;;;;1.43;0.83;;;;;;;-145.69;100.00;52444.38;5074081;28;20201;-83
2023/04/23 06:03:35;;;;;;;0.80;0.60;;;;;;;-145.69;100.00;52474.09;5074211;28;20628;-82
2023/04/23 06:06:01;;;;;;;1.23;0.70;;;;;;;-145.69;100.00;52460.22;5073869;28;20658;-82
2023/04/23 06:08:28;;;;;;;0.88;0.57;;;;;;;-145.69;100.00;52432.50;5073488;28;20206;-82
2023/04/23 06:10:55;;;;;;;1.38;0.80;;;;;;;-145.69;100.00;52460.22;5074083;28;20199;-82
2023/04/23 06:13:21;;;;;;;0.70;0.70;;;;;;;-145.69;100.00;52456.28;5073556;28;20234;-82
2023/04/23 06:15:49;;;;;;;0.85;0.60;;;;;;;-145.69;100.00;52418.63;5074123;28;20207;-80
2023/04/23 06:18:15;;;;;;;0.70;0.70;;;;;;;-145.69;100.00;52468.16;5073583;28;20207;-81
2023/04/23 06:20:42;;;;;;;0.70;0.70;;;;;;;-145.69;100.00;52456.28;5074014;28;20202;-81
2023/04/23 06:23:08;;;;;;;3.15;0.73;;;;;;;-145.69;100.00;52442.41;5073887;28;20202;-82
2023/04/23 06:25:35;;;;;;;0.70;0.60;;;;;;;-145.69;100.00;52440.44;5073878;28;20206;-82
2023/04/23 06:28:01;;;;;;;0.63;0.52;;;;;;;-145.69;100.00;52458.25;5073315;28;20209;-82
2023/04/23 06:30:28;;;;;;;0.50;0.50;;;;;;;-145.69;100.00;52456.28;5073103;28;20218;-82
2023/04/23 06:32:56;;;;;;;0.93;0.60;;;;;;;-145.69;100.00;52396.84;5073696;28;20218;-82
2023/04/23 06:35:22;;;;;;;2.40;0.57;;;;;;;-145.69;100.00;52487.97;5073021;28;20198;-82
2023/04/23 06:37:49;;;;;;;0.60;0.60;;;;;;;-145.69;100.00;52428.53;5073613;28;20205;-83
2023/04/23 06:40:15;;;;;;;1.20;0.70;;;;;;;-145.69;100.00;52426.56;5072476;28;20199;-82
2023/04/23 06:42:44;;;;;;;1.52;0.80;;;;;;;-145.69;100.00;52432.50;5070087;28;20605;-82
2023/04/23 06:45:11;;;;;;;0.93;0.60;;;;;;;-145.69;100.00;52448.34;5073066;28;20223;-83
2023/04/23 06:47:37;;;;;;;2.28;0.70;;;;;;;-145.69;100.00;52460.22;5073406;28;20661;-83
2023/04/23 06:50:07;;;;;;;1.13;0.70;;;;;;;-145.69;100.00;52446.38;5073251;28;20230;-83
2023/04/23 06:52:34;;;;;;;0.60;0.60;;;;;;;-145.69;100.00;52474.09;5072724;28;20198;-84
2023/04/23 06:55:02;;;;;;;1.48;0.85;;;;;;;-145.69;100.00;52438.44;5072878;28;20195;-86
2023/04/23 06:57:28;;;;;;;0.70;0.60;;;;;;;-145.69;100.00;52448.34;5073539;28;20194;-84
2023/04/23 06:59:55;;;;;;;1.27;0.70;;;;;;;-145.69;100.00;52446.38;5073150;28;20301;-84
2023/04/23 07:02:21;;;;;;;0.80;0.73;;;;;;;-145.69;100.00;52430.53;5072920;28;20195;-83
2023/04/23 07:04:48;;;;;;;1.52;0.60;;;;;;;-145.69;100.00;52422.59;5072983;28;20202;-84
2023/04/23 07:07:16;;;;;;;0.80;0.70;;;;;;;-145.69;100.00;52410.72;5074281;28;20207;-87
2023/04/23 07:09:43;;;;;;;2.05;0.70;;;;;;;-145.69;100.00;52446.38;5074528;28;20231;-88
2023/04/23 07:12:10;;;;;;;1.08;0.60;;;;;;;-145.69;100.00;52410.72;5075479;28;20194;-88
2023/04/23 07:14:36;;;;;;;1.85;0.77;;;;;;;-145.69;100.00;52422.59;5075851;28;20203;-83
2023/04/23 07:17:03;;;;;;;1.58;0.60;;;;;;;-145.69;100.00;52424.59;5074703;28;20195;-88
2023/04/23 07:19:29;;;;;;;1.83;0.68;;;;;;;-145.69;100.00;52416.66;5074540;28;20195;-86
2023/04/23 07:21:56;;;;;;;2.35;0.60;;;;;;;-145.69;100.00;52420.63;5074847;28;20206;-87
2023/04/23 07:24:25;;;;;;;0.75;0.75;;;;;;;-145.69;100.00;52402.78;5075388;28;20199;-85
2023/04/23 07:26:53;;;;;;;0.70;0.70;;;;;;;-145.69;100.00;52416.66;5074073;28;20206;-84
2023/04/23 07:29:20;;;;;;;0.80;0.70;;;;;;;-145.69;100.00;52388.94;5074094;28;20226;-86
2023/04/23 07:31:50;;;;;;;0.77;0.63;;;;;;;-145.69;100.00;52396.84;5073764;28;20203;-87
2023/04/23 07:34:18;;;;;;;2.40;0.60;;;;;;;-145.69;100.00;52398.84;5074389;28;20849;-87
2023/04/23 07:36:45;;;;;;;0.70;0.70;;;;;;;-145.69;100.00;52396.84;5073230;28;20639;-81
2023/04/23 07:39:14;;;;;;;0.65;0.65;;;;;;;-145.69;100.00;52396.84;5072644;28;20594;-84
2023/04/23 07:41:45;;;;;;;1.95;0.50;;;;;;;-145.69;100.00;52434.47;5071693;28;20190;-82
2023/04/23 07:44:14;;;;;;;2.72;0.70;;;;;;;-145.69;100.00;52375.06;5073240;28;20203;-84
2023/04/23 07:46:42;;;;;;;0.60;0.60;;;;;;;-145.69;100.00;52394.88;5073596;28;20249;-84
2023/04/23 07:49:09;;;;;;;2.92;0.85;;;;;;;-145.69;100.00;52381.00;5073329;28;20572;-86
2023/04/23 07:51:35;;;;;;;3.10;0.70;;;;;;;-145.69;100.00;52375.06;5073506;28;20198;-85
2023/04/23 07:54:02;;;;;;;1.92;0.70;;;;;;;-145.69;100.00;52381.00;5073558;28;20213;-85
2023/04/23 07:56:32;;;;;;;2.40;1.00;;;;;;;-145.69;100.00;52392.91;5073399;28;20217;-86
2023/04/23 07:59:00;;;;;;;1.30;0.93;;;;;;;-145.69;100.00;52396.84;5064730;28;20211;-84
2023/04/23 08:01:26;;;;;;;2.28;1.00;;;;;;;-145.69;98.36;52390.91;5053549;28;20226;-82
2023/04/23 08:03:54;;;;;;;1.00;0.73;;;;;;;-145.69;90.28;52363.19;5054655;28;20286;-84
2023/04/23 08:06:22;;;;;;;0.85;0.75;;;;;;;-145.69;86.61;52345.38;5054617;28;20195;-83
2023/04/23 08:08:48;;;;;;;0.63;0.63;;;;;;;-145.69;89.03;52339.44;5054041;28;20196;-87
2023/04/23 08:11:15;;;;;;;0.63;0.50;;;;;;;-145.69;93.66;52365.16;5061571;28;20226;-88
2023/04/23 08:13:42;;;;;;;2.72;0.70;;;;;;;-145.69;90.23;52392.91;5077052;28;20691;-87
2023/04/23 08:16:10;;;;;;;2.38;0.90;;;;;;;-145.69;90.79;52384.97;5074938;28;20195;-86
2023/04/23 08:18:36;;;;;;;2.00;0.70;;;;;;;-145.69;98.30;52384.97;5072924;28;20549;-86
2023/04/23 08:21:03;;;;;;;1.10;0.73;;;;;;;-145.69;92.48;52357.25;5073995;28;20191;-84
2023/04/23 08:23:30;;;;;;;1.02;0.85;;;;;;;-145.69;90.00;52363.19;5073628;28;20285;-83
2023/04/23 08:25:56;;;;;;;3.05;0.90;;;;;;;-145.69;92.72;52349.31;5075524;28;20202;-84
2023/04/23 08:28:23;;;;;;;1.85;0.85;;;;;;;-145.69;91.54;52341.41;5075940;28;20191;-84
2023/04/23 08:30:49;;;;;;;1.88;0.80;;;;;;;-145.69;90.81;52377.06;5078300;28;20233;-85
2023/04/23 08:33:17;;;;;;;2.35;0.88;;;;;;;-145.69;85.96;52375.06;5065261;28;20195;-81
2023/04/23 08:35:43;;;;;;;3.40;1.00;;;;;;;-145.69;100.00;52357.25;5076310;28;20214;-81
2023/04/23 08:38:10;;;;;;;1.42;0.93;;;;;;;-145.69;85.23;52341.41;5076060;28;20198;-81
2023/04/23 08:40:37;;;;;;;0.85;0.63;;;;;;;-145.69;93.76;52353.28;5076028;28;20221;-83
2023/04/23 08:43:12;;;;;;;1.27;0.70;;;;;;;-145.69;91.47;52353.28;5075648;28;20733;-85
2023/04/23 08:45:40;;;;;;;3.28;0.85;;;;;;;-145.69;88.63;52377.06;5074090;28;20442;-86
2023/04/23 08:48:09;;;;;;;2.80;0.70;;;;;;;-145.69;82.79;52335.47;5079281;28;20225;-86
2023/04/23 08:50:41;;;;;;;2.10;0.90;;;;;;;-145.69;81.59;52369.13;5077035;28;20273;-84
2023/04/23 08:53:08;;;;;;;1.13;0.80;;;;;;;-145.69;87.51;52373.09;5076411;28;20221;-84
2023/04/23 08:55:35;;;;;;;2.83;0.90;;;;;;;-145.69;85.63;52321.59;5075884;28;20209;-84
2023/04/23 08:58:05;;;;;;;2.50;0.90;;;;;;;-145.69;82.32;52341.41;5075226;28;20198;-84
2023/04/23 09:00:33;;;;;;;1.10;0.90;;;;;;;-145.69;80.98;52347.34;5075475;28;20195;-85
2023/04/23 09:02:59;;;;;;;1.60;0.75;;;;;;;-145.69;80.53;52359.22;5075774;28;20202;-85
2023/04/23 09:05:26;;;;;;;1.35;0.90;;;;;;;-145.69;79.55;52335.47;5075909;28;20195;-85
2023/04/23 09:07:54;;;;;;;2.75;0.90;;;;;;;-145.69;75.15;52317.66;5075874;28;20550;-85
2023/04/23 09:10:21;;;;;;;1.50;0.98;;;;;;;-145.69;73.77;52335.47;5075614;28;20226;-84
2023/04/23 09:12:47;;;;;;;1.10;0.90;;;;;;;-145.69;66.85;52325.56;5075357;28;20642;-85
2023/04/23 09:15:14;;;;;;;1.13;0.80;;;;;;;-145.69;67.37;52345.38;5075774;28;20202;-85
2023/04/23 09:17:42;;;;;;;1.17;0.90;;;;;;;-145.69;73.50;52333.47;5075198;28;20198;-84
2023/04/23 09:20:10;;;;;;;1.20;0.90;;;;;;;-145.69;79.65;52305.75;5075501;28;20202;-85
2023/04/23 09:22:41;;;;;;;1.52;0.90;;;;;;;-145.69;69.34;52309.72;5076123;28;20233;-84
2023/04/23 09:25:10;;;;;;;2.47;0.93;;;;;;;-145.69;67.36;52317.66;5074927;28;20200;-85
2023/04/23 09:27:37;;;;;;;1.08;0.70;;;;;;;-145.69;79.38;52313.69;5075682;28;20195;-84
2023/04/23 09:30:06;;;;;;;1.80;0.70;;;;;;;-145.69;71.84;52317.66;5075007;28;20581;-84
2023/04/23 09:32:34;;;;;;;1.50;0.98;;;;;;;-145.69;65.32;52307.75;5074038;28;20201;-83
2023/04/23 09:35:03;;;;;;;1.30;0.73;;;;;;;-145.69;74.24;52307.75;5075152;28;20711;-84
2023/04/23 09:37:30;;;;;;;1.80;1.00;;;;;;;-145.69;72.26;52274.06;5075264;28;20272;-84
2023/04/23 09:39:59;;;;;;;1.58;0.70;;;;;;;-145.69;59.55;52315.66;5075525;28;20205;-84
2023/04/23 09:42:28;;;;;;;2.42;0.70;;;;;;;-145.69;64.97;52333.47;5055987;28;20195;-84
2023/04/23 09:44:59;;;;;;;1.77;0.70;;;;;;;-145.69;72.17;52309.72;5070606;28;20230;-84
2023/04/23 09:47:26;;;;;;;2.80;0.80;;;;;;;-145.69;72.99;52313.69;5075139;28;20222;-81
2023/04/23 09:49:53;;;;;;;0.80;0.70;;;;;;;-145.69;70.36;52299.81;5076962;28;20205;-83
2023/04/23 09:52:21;;;;;;;1.73;0.77;;;;;;;-145.69;69.18;52323.59;5075262;28;20224;-83
2023/04/23 09:54:48;;;;;;;0.73;0.52;;;;;;;-145.69;65.68;52321.59;5076619;28;20294;-83
2023/04/23 09:57:14;;;;;;;1.20;0.60;;;;;;;-145.69;66.82;52258.22;5075497;28;20286;-83
2023/04/23 09:59:42;;;;;;;1.92;0.60;;;;;;;-145.69;68.62;52315.66;5075481;28;20434;-83
2023/04/23 10:02:10;;;;;;;1.08;0.68;;;;;;;-145.69;60.65;52285.97;5074232;28;20324;-82
2023/04/23 10:04:38;;;;;;;1.25;0.52;;;;;;;-145.69;62.74;52289.91;5074020;28;20562;-81
2023/04/23 10:07:07;;;;;;;1.67;0.55;;;;;;;-145.69;59.06;52345.38;5074055;28;20213;-82
2023/04/23 10:09:34;;;;;;;0.95;0.45;;;;;;;-145.69;62.90;52268.13;5073528;28;20201;-82
2023/04/23 10:12:02;;;;;;;1.98;0.70;;;;;;;-145.69;69.25;52301.81;5073429;28;20250;-82
2023/04/23 10:14:29;;;;;;;1.20;0.60;;;;;;;-145.69;65.28;52274.06;5074020;28;20218;-82
2023/04/23 10:17:00;;;;;;;3.58;0.57;;;;;;;-145.69;58.46;52285.97;5073506;28;20202;-81
2023/04/23 10:19:27;;;;;;;1.10;0.63;;;;;;;-145.69;60.26;52264.16;5073856;28;20203;-82
2023/04/23 10:21:59;;;;;;;2.22;0.43;;;;;;;-145.69;57.22;52293.88;5074137;28;20210;-82
2023/04/23 10:24:29;;;;;;;0.60;0.60;;;;;;;-145.69;63.19;52282.00;5074308;28;20214;-82
2023/04/23 10:26:58;;;;;;;0.45;0.40;;;;;;;-145.69;64.01;52234.47;5074191;28;20209;-81
2023/04/23 10:29:27;;;;;;;1.35;0.65;;;;;;;-145.69;68.35;52293.88;5073814;28;20218;-82
2023/04/23 10:31:56;;;;;;;0.50;0.50;;;;;;;-145.69;60.40;52252.28;5073586;28;20238;-82
2023/04/23 10:34:24;;;;;;;0.65;0.60;;;;;;;-145.69;69.04;52266.16;5073840;28;20194;-82
2023/04/23 10:36:51;;;;;;;0.93;0.70;;;;;;;-145.69;54.24;52289.91;5073523;28;20649;-83
2023/04/23 10:39:19;;;;;;;0.50;0.50;;;;;;;-145.69;55.12;52250.31;5073561;28;20199;-82
2023/04/23 10:41:47;;;;;;;2.38;0.60;;;;;;;-145.69;60.39;52250.31;5073559;28;20805;-82
2023/04/23 10:44:15;;;;;;;2.83;0.70;;;;;;;-145.69;57.93;52246.34;5073120;28;20222;-82
2023/04/23 10:46:51;;;;;;;1.30;0.60;;;;;;;-145.69;58.52;52311.69;5071079;28;20253;-82
2023/04/23 10:49:17;;;;;;;0.75;0.57;;;;;;;-145.69;64.54;52276.06;5070532;28;20199;-81
2023/04/23 10:51:47;;;;;;;0.93;0.77;;;;;;;-145.69;64.29;52291.91;5073002;28;20226;-82
2023/04/23 10:54:14;;;;;;;2.72;0.82;;;;;;;-145.69;60.58;52274.06;5072522;28;20572;-82
2023/04/23 10:56:43;;;;;;;0.60;0.45;;;;;;;-145.69;63.76;52285.97;5073372;28;20202;-82
2023/04/23 10:59:18;;;;;;;3.63;0.60;;;;;;;-145.69;58.51;52246.34;5073196;28;20654;-82
2023/04/23 11:01:46;;;;;;;2.42;0.68;;;;;;;-145.69;62.39;52270.13;5073129;28;20229;-82
2023/04/23 11:04:23;;;;;;;1.50;1.00;;;;;;;-145.69;58.44;52264.16;5073338;28;20207;-82
2023/04/23 11:06:56;;;;;;;0.90;0.60;;;;;;;-145.69;65.53;52293.88;5073151;28;20281;-83
2023/04/23 11:09:36;;;;;;;1.30;0.60;;;;;;;-145.69;53.61;52264.16;5073125;28;20616;-82
2023/04/23 11:12:07;;;;;;;1.50;0.75;;;;;;;-145.69;54.91;52262.19;5073130;28;20229;-81